Terminal Aerodrome Forecast
Issued by NWS

Home | Current Version | Previous Version | Text Only | Print | Product List | Glossary On
Versions: 1 2 3 4 5 6 7 8 9 10 11 12 13 14 15 16 17 18 19 20 21 22 23 24
513
FTUS41 KCAR 110526 AAA
TAFFVE
TAF AMD
KFVE 110526Z 1105/1206 34004KT P6SM OVC035
     FM110900 34005KT P6SM OVC025
     FM120300 31009KT P6SM BKN015=

USA.gov is the U.S. government's official web portal to all federal, state and local government web resources and services.